createdAt,value
2023-02-16T00:00:06.316Z,100976.19
2023-02-16T00:05:24.855Z,100979.69
2023-02-16T00:10:33.990Z,100969.94
2023-02-16T00:15:36.851Z,100969.06
2023-02-16T00:20:39.600Z,100965.31
2023-02-16T00:25:44.024Z,100979.47
2023-02-16T00:30:47.442Z,100976.78
2023-02-16T00:35:50.474Z,100973.28
2023-02-16T00:45:58.351Z,100974.75
2023-02-16T00:51:01.498Z,100971.09
2023-02-16T00:56:06.536Z,100970.97
2023-02-16T01:01:14.164Z,100980.72
2023-02-16T01:06:34.746Z,100962.50
2023-02-16T01:11:39.546Z,100956.94
2023-02-16T01:16:43.877Z,100961.66
2023-02-16T01:21:46.720Z,100961.84
2023-02-16T01:26:51.997Z,100965.41
2023-02-16T01:31:55.030Z,100959.31
2023-02-16T01:36:57.927Z,100958.66
2023-02-16T01:47:35.356Z,100950.06
2023-02-16T01:52:42.551Z,100955.22
2023-02-16T01:57:50.360Z,100951.47
2023-02-16T02:03:16.552Z,100953.47
2023-02-16T02:08:27.911Z,100948.47
2023-02-16T02:13:41.032Z,100943.56
2023-02-16T02:18:45.263Z,100949.97
2023-02-16T02:24:09.670Z,100940.38
2023-02-16T02:29:28.447Z,100947.84
2023-02-16T02:34:48.047Z,100937.44
2023-02-16T02:39:59.535Z,100945.00
2023-02-16T02:45:10.540Z,100942.50
2023-02-16T02:51:03.101Z,100930.38
2023-02-16T02:56:26.692Z,100929.78
2023-02-16T03:01:33.587Z,100940.91
2023-02-16T03:06:39.549Z,100943.88
2023-02-16T03:12:00.659Z,100944.03
2023-02-16T03:17:26.863Z,100954.25
2023-02-16T03:22:48.283Z,100952.63
2023-02-16T03:28:09.512Z,100942.13
2023-02-16T03:33:13.932Z,100942.28
2023-02-16T03:38:17.036Z,100949.59
2023-02-16T03:43:19.980Z,100944.38
2023-02-16T03:48:24.324Z,100941.88
2023-02-16T03:53:27.101Z,100946.44
2023-02-16T03:58:30.200Z,100945.59
2023-02-16T04:03:34.379Z,100943.94
2023-02-16T04:08:37.168Z,100947.66
2023-02-16T04:13:40.022Z,100948.72
2023-02-16T04:18:44.140Z,100952.38
2023-02-16T04:23:46.916Z,100957.75
2023-02-16T04:28:49.798Z,100954.34
2023-02-16T04:33:53.931Z,100962.63
2023-02-16T04:38:56.684Z,100950.09
2023-02-16T04:43:59.571Z,100955.56
2023-02-16T04:49:03.859Z,100948.56
2023-02-16T04:54:06.837Z,100937.00
2023-02-16T04:59:09.672Z,100937.09
2023-02-16T05:04:13.925Z,100944.44
2023-02-16T05:09:16.780Z,100941.84
2023-02-16T05:14:39.689Z,100937.53
2023-02-16T05:19:46.474Z,100943.06
2023-02-16T05:24:49.906Z,100944.13
2023-02-16T05:29:52.874Z,100948.63
2023-02-16T05:34:57.065Z,100946.09
2023-02-16T05:39:59.839Z,100937.25
2023-02-16T05:45:03.590Z,100948.97
2023-02-16T05:50:08.755Z,100934.72
2023-02-16T05:55:11.679Z,100939.22
2023-02-16T06:00:15.972Z,100917.81
2023-02-16T06:05:20.380Z,100922.38
2023-02-16T06:10:23.128Z,100925.25
2023-02-16T06:15:26.099Z,100930.72
2023-02-16T06:20:30.335Z,100944.25
2023-02-16T06:25:33.206Z,100943.44
2023-02-16T06:30:36.399Z,100945.25
2023-02-16T06:35:40.966Z,100951.66
2023-02-16T06:40:43.765Z,100958.09
2023-02-16T06:45:47.099Z,100940.31
2023-02-16T06:50:51.774Z,100949.31
2023-02-16T06:55:54.604Z,100947.56
2023-02-16T07:00:57.489Z,100944.97
2023-02-16T07:06:01.704Z,100938.72
2023-02-16T07:11:05.136Z,100936.03
2023-02-16T07:16:08.543Z,100930.75
2023-02-16T07:21:12.774Z,100937.88
2023-02-16T07:26:15.601Z,100941.50
2023-02-16T07:31:18.898Z,100940.63
2023-02-16T07:36:23.207Z,100937.88
2023-02-16T07:41:26.280Z,100929.00
2023-02-16T07:46:31.621Z,100929.00
2023-02-16T07:51:37.380Z,100931.69
2023-02-16T07:56:40.234Z,100926.41
2023-02-16T08:01:43.118Z,100917.41
2023-02-16T08:06:48.595Z,100935.97
2023-02-16T08:11:51.378Z,100944.75
2023-02-16T08:16:56.352Z,100953.16
2023-02-16T08:22:02.349Z,100935.00
2023-02-16T08:27:07.455Z,100927.22
2023-02-16T08:32:12.999Z,100934.28
2023-02-16T08:37:17.813Z,100930.81
2023-02-16T08:42:21.250Z,100932.25
2023-02-16T08:47:24.363Z,100932.03
2023-02-16T08:52:29.116Z,100934.75
2023-02-16T08:57:34.716Z,100938.41
2023-02-16T09:02:37.627Z,100938.72
2023-02-16T09:07:41.814Z,100942.59
2023-02-16T09:12:48.400Z,100949.38
2023-02-16T09:17:51.471Z,100949.75
2023-02-16T09:22:55.641Z,100955.66
2023-02-16T09:27:58.508Z,100949.09
2023-02-16T09:33:01.339Z,100947.13
2023-02-16T09:38:05.564Z,100949.56
2023-02-16T09:43:36.229Z,100945.84
2023-02-16T09:48:45.374Z,100949.25
2023-02-16T09:53:58.134Z,100947.41
2023-02-16T09:59:11.655Z,100948.09
2023-02-16T10:04:31.524Z,100936.72
2023-02-16T10:09:37.056Z,100940.91
2023-02-16T10:14:44.136Z,100925.56
2023-02-16T10:19:54.572Z,100933.44
2023-02-16T10:25:03.475Z,100925.06
2023-02-16T10:30:16.532Z,100931.00
2023-02-16T10:35:27.193Z,100922.75
2023-02-16T10:40:38.301Z,100926.16
2023-02-16T10:45:49.663Z,100921.38
2023-02-16T10:51:02.197Z,100919.38
2023-02-16T10:56:28.242Z,100906.53
2023-02-16T11:01:37.980Z,100912.53
2023-02-16T11:06:41.847Z,100906.03
2023-02-16T11:11:46.238Z,100901.31
2023-02-16T11:16:49.419Z,100907.31
2023-02-16T11:21:55.240Z,100899.75
2023-02-16T11:27:04.976Z,100890.53
2023-02-16T11:32:09.439Z,100897.47
2023-02-16T11:37:18.765Z,100880.09
2023-02-16T11:42:31.275Z,100862.59
2023-02-16T11:47:37.599Z,100856.59
2023-02-16T11:52:40.518Z,100861.13
2023-02-16T11:57:45.004Z,100856.50
2023-02-16T12:03:07.914Z,100853.72
2023-02-16T12:08:33.439Z,100850.97
2023-02-16T12:13:49.628Z,100845.38
2023-02-16T12:19:07.547Z,100834.50
2023-02-16T12:24:36.531Z,100834.34
2023-02-16T12:29:53.743Z,100827.91
2023-02-16T12:35:09.701Z,100818.78
2023-02-16T12:40:24.230Z,100816.97
2023-02-16T12:45:34.564Z,100806.88
2023-02-16T12:50:41.015Z,100810.19
2023-02-16T12:55:48.964Z,100802.13
2023-02-16T13:00:57.221Z,100808.97
2023-02-16T13:06:09.203Z,100804.56
2023-02-16T13:11:19.719Z,100798.09
2023-02-16T13:16:33.489Z,100796.09
2023-02-16T13:22:04.017Z,100791.66
2023-02-16T13:27:28.188Z,100791.53
2023-02-16T13:32:51.017Z,100785.28
2023-02-16T13:38:07.063Z,100783.28
2023-02-16T13:43:19.827Z,100780.28
2023-02-16T13:48:27.470Z,100782.03
2023-02-16T13:53:35.947Z,100790.00
2023-02-16T13:58:40.811Z,100779.66
2023-02-16T14:03:45.087Z,100784.94
2023-02-16T14:09:28.384Z,100787.25
2023-02-16T14:14:33.193Z,100791.38
2023-02-16T14:19:37.503Z,100786.06
2023-02-16T14:24:43.011Z,100793.00
2023-02-16T14:29:57.642Z,100789.19
2023-02-16T14:35:09.229Z,100792.72
2023-02-16T14:40:16.749Z,100791.38
2023-02-16T14:45:46.868Z,100788.97
2023-02-16T14:51:17.755Z,100781.84
2023-02-16T14:56:38.123Z,100794.00
2023-02-16T15:01:42.715Z,100788.47
2023-02-16T15:06:48.664Z,100796.22
2023-02-16T15:12:11.324Z,100793.88
2023-02-16T15:17:28.597Z,100785.00
2023-02-16T15:22:33.408Z,100784.34
2023-02-16T15:27:37.290Z,100778.09
2023-02-16T15:32:41.149Z,100782.31
2023-02-16T15:37:45.378Z,100779.16
2023-02-16T15:42:50.563Z,100778.69
2023-02-16T15:47:54.040Z,100787.16
2023-02-16T15:52:58.309Z,100776.66
2023-02-16T15:58:01.197Z,100771.66
2023-02-16T16:03:05.555Z,100769.25
2023-02-16T16:08:17.256Z,100765.97
2023-02-16T16:13:22.421Z,100760.78
2023-02-16T16:18:46.348Z,100760.97
2023-02-16T16:24:11.814Z,100753.09
2023-02-16T16:29:31.743Z,100757.78
2023-02-16T16:34:37.304Z,100759.31
2023-02-16T16:39:42.410Z,100757.31
2023-02-16T16:44:55.205Z,100760.00
2023-02-16T16:50:00.681Z,100755.66
2023-02-16T16:55:22.196Z,100744.88
2023-02-16T17:00:28.021Z,100753.44
2023-02-16T17:05:31.776Z,100748.75
2023-02-16T17:10:37.616Z,100752.41
2023-02-16T17:15:48.715Z,100758.28
2023-02-16T17:20:52.536Z,100773.56
2023-02-16T17:25:56.652Z,100763.75
2023-02-16T17:30:59.548Z,100775.47
2023-02-16T17:36:04.267Z,100772.88
2023-02-16T17:41:08.686Z,100757.88
2023-02-16T17:46:11.750Z,100772.28
2023-02-16T17:51:16.286Z,100764.31
2023-02-16T17:56:23.052Z,100770.84
2023-02-16T18:01:25.837Z,100771.81
2023-02-16T18:06:29.286Z,100771.88
2023-02-16T18:11:33.562Z,100768.50
2023-02-16T18:16:36.420Z,100772.81
2023-02-16T18:21:39.232Z,100779.69
2023-02-16T18:26:43.574Z,100781.06
2023-02-16T18:31:47.374Z,100786.72
2023-02-16T18:36:50.239Z,100792.44
2023-02-16T18:41:54.361Z,100788.50
2023-02-16T18:46:57.325Z,100793.50
2023-02-16T18:52:00.239Z,100794.94
2023-02-16T18:57:05.056Z,100785.72
2023-02-16T19:02:08.744Z,100772.81
2023-02-16T19:07:11.581Z,100777.81
2023-02-16T19:12:15.996Z,100797.25
2023-02-16T19:17:18.752Z,100792.63
2023-02-16T19:22:22.082Z,100779.81
2023-02-16T19:27:26.198Z,100768.06
2023-02-16T19:32:29.138Z,100777.72
2023-02-16T19:37:32.340Z,100779.44
2023-02-16T19:42:36.633Z,100778.38
2023-02-16T19:47:39.456Z,100769.38
2023-02-16T19:52:42.327Z,100777.59
2023-02-16T19:57:46.515Z,100764.63
2023-02-16T20:02:49.512Z,100761.63
2023-02-16T20:07:52.454Z,100750.94
2023-02-16T20:12:56.796Z,100755.94
2023-02-16T20:17:59.677Z,100760.25
2023-02-16T20:23:02.586Z,100754.78
2023-02-16T20:28:06.795Z,100736.78
2023-02-16T20:33:09.757Z,100739.25
2023-02-16T20:38:12.544Z,100731.72
2023-02-16T20:43:20.784Z,100723.53
2023-02-16T20:48:23.806Z,100728.91
2023-02-16T20:53:28.097Z,100722.25
2023-02-16T20:58:32.801Z,100721.38
2023-02-16T21:03:35.659Z,100706.00
2023-02-16T21:08:38.899Z,100715.59
2023-02-16T21:13:43.602Z,100714.84
2023-02-16T21:18:46.639Z,100703.84
2023-02-16T21:23:52.883Z,100703.94
2023-02-16T21:28:57.021Z,100698.13
2023-02-16T21:33:59.851Z,100696.31
2023-02-16T21:39:03.135Z,100681.53
2023-02-16T21:44:09.365Z,100675.38
2023-02-16T21:49:14.530Z,100672.16
2023-02-16T21:54:40.514Z,100663.19
2023-02-16T21:59:44.601Z,100673.03
2023-02-16T22:04:47.354Z,100669.47
2023-02-16T22:09:50.151Z,100660.41
2023-02-16T22:14:54.290Z,100651.75
2023-02-16T22:19:57.071Z,100659.53
2023-02-16T22:24:59.823Z,100645.19
2023-02-16T22:30:04.426Z,100638.56
2023-02-16T22:35:07.804Z,100637.72
2023-02-16T22:40:11.098Z,100627.59
2023-02-16T22:45:15.456Z,100628.09
2023-02-16T22:50:18.300Z,100633.72
2023-02-16T22:55:21.127Z,100624.66
2023-02-16T23:00:25.330Z,100630.25
2023-02-16T23:05:30.689Z,100614.91
2023-02-16T23:10:33.409Z,100612.03
2023-02-16T23:15:37.539Z,100608.88
2023-02-16T23:20:40.268Z,100602.63
2023-02-16T23:25:45.857Z,100599.94
2023-02-16T23:30:49.961Z,100598.31
2023-02-16T23:35:54.089Z,100591.97
2023-02-16T23:40:58.358Z,100601.00
2023-02-16T23:46:02.953Z,100601.97
2023-02-16T23:51:06.697Z,100602.94
2023-02-16T23:56:14.501Z,100592.91
